createdAt,value
2022-10-02T00:02:21.598Z,13.7
2022-10-02T00:03:41.926Z,13.7
2022-10-02T00:08:53.755Z,13.8
2022-10-02T00:13:45.917Z,13.8
2022-10-02T00:18:59.215Z,13.8
2022-10-02T00:19:30.743Z,13.8
2022-10-02T00:28:41.272Z,13.8
2022-10-02T00:33:41.201Z,13.8
2022-10-02T00:38:41.113Z,13.7
2022-10-02T00:43:40.851Z,13.7
2022-10-02T00:48:40.601Z,13.7
2022-10-02T00:53:40.543Z,13.6
2022-10-02T00:58:40.333Z,13.6
2022-10-02T01:03:40.267Z,13.6
2022-10-02T01:08:40.086Z,13.6
2022-10-02T01:13:39.918Z,13.6
2022-10-02T01:18:39.820Z,13.6
2022-10-02T01:23:39.665Z,13.6
2022-10-02T01:28:39.555Z,13.6
2022-10-02T01:33:39.413Z,13.6
2022-10-02T01:38:39.120Z,13.6
2022-10-02T01:43:38.903Z,13.6
2022-10-02T01:48:38.788Z,13.6
2022-10-02T01:53:38.552Z,13.6
2022-10-02T01:58:38.376Z,13.6
2022-10-02T02:03:38.148Z,13.5
2022-10-02T02:08:38.041Z,13.4
2022-10-02T02:13:37.774Z,13.4
2022-10-02T02:18:37.633Z,13.4
2022-10-02T02:28:37.202Z,13.3
2022-10-02T02:33:36.989Z,13.3
2022-10-02T02:38:36.817Z,13.4
2022-10-02T02:43:36.586Z,13.4
2022-10-02T02:48:36.611Z,13.3
2022-10-02T02:53:36.330Z,13.3
2022-10-02T02:58:36.280Z,13.3
2022-10-02T03:03:36.199Z,13.3
2022-10-02T03:08:35.918Z,13.2
2022-10-02T03:13:35.828Z,13.2
2022-10-02T03:18:35.666Z,13.2
2022-10-02T03:23:35.499Z,13.2
2022-10-02T03:28:53.900Z,13.2
2022-10-02T03:33:35.146Z,13.2
2022-10-02T03:43:34.975Z,13.2
2022-10-02T03:48:34.742Z,13.2
2022-10-02T03:58:34.404Z,13.2
2022-10-02T04:03:34.221Z,13.2
2022-10-02T04:13:34.052Z,13.2
2022-10-02T04:18:33.837Z,13.2
2022-10-02T04:23:33.628Z,13.1
2022-10-02T04:33:38.276Z,13.1
2022-10-02T04:38:33.352Z,13.0
2022-10-02T04:43:34.465Z,13.0
2022-10-02T04:48:32.961Z,13.0
2022-10-02T04:53:32.947Z,13.0
2022-10-02T04:58:32.704Z,12.9
2022-10-02T05:03:32.614Z,12.9
2022-10-02T05:04:42.130Z,12.9
2022-10-02T05:06:20.959Z,12.9
2022-10-02T05:08:32.432Z,12.8
2022-10-02T05:13:33.337Z,12.8
2022-10-02T05:18:32.090Z,12.8
2022-10-02T05:20:23.007Z,12.8
2022-10-02T05:23:31.860Z,12.9
2022-10-02T05:33:31.635Z,12.8
2022-10-02T05:33:51.262Z,12.8
2022-10-02T05:38:31.359Z,12.8
2022-10-02T05:43:31.260Z,12.8
2022-10-02T05:48:31.125Z,12.8
2022-10-02T05:53:30.890Z,12.8
2022-10-02T05:58:30.831Z,12.9
2022-10-02T06:03:30.629Z,12.9
2022-10-02T06:08:30.577Z,12.9
2022-10-02T06:13:30.214Z,12.9
2022-10-02T06:18:30.156Z,12.9
2022-10-02T06:23:31.451Z,12.8
2022-10-02T06:28:29.874Z,12.8
2022-10-02T06:33:29.654Z,12.8
2022-10-02T06:38:29.425Z,12.8
2022-10-02T06:43:29.136Z,12.8
2022-10-02T07:33:30.046Z,12.6
2022-10-02T07:38:27.277Z,12.6
2022-10-02T07:43:28.386Z,12.6
2022-10-02T07:48:26.879Z,12.6
2022-10-02T07:53:26.749Z,12.6
2022-10-02T07:58:26.523Z,12.5
2022-10-02T08:03:26.334Z,12.6
2022-10-02T08:08:26.142Z,12.6
2022-10-02T08:13:27.186Z,12.6
2022-10-02T08:18:34.587Z,12.5
2022-10-02T08:28:25.522Z,12.5
2022-10-02T08:43:24.798Z,12.7
2022-10-02T08:48:24.622Z,12.9
2022-10-02T08:58:24.313Z,13.0
2022-10-02T09:03:24.093Z,12.9
2022-10-02T09:08:23.969Z,13.2
2022-10-02T09:18:23.582Z,13.8
2022-10-02T09:23:23.453Z,14.3
2022-10-02T09:28:23.398Z,14.6
2022-10-02T09:33:23.119Z,14.7
2022-10-02T09:38:23.012Z,15.3
2022-10-02T09:43:22.931Z,15.0
2022-10-02T09:48:22.834Z,15.1
2022-10-02T09:53:22.698Z,15.1
2022-10-02T09:58:22.744Z,15.1
2022-10-02T10:03:22.559Z,15.2
2022-10-02T10:13:22.564Z,15.9
2022-10-02T10:18:22.528Z,16.2
2022-10-02T10:23:08.673Z,16.4
2022-10-02T10:23:22.291Z,16.3
2022-10-02T10:26:26.379Z,16.5
2022-10-02T10:28:22.542Z,16.9
2022-10-02T10:33:22.546Z,16.7
2022-10-02T10:38:22.616Z,17.2
2022-10-02T10:48:25.029Z,17.2
2022-10-02T10:53:22.645Z,17.6
2022-10-02T10:58:24.684Z,18.1
2022-10-02T11:03:22.832Z,18.3
2022-10-02T11:13:22.907Z,19.1
2022-10-02T11:18:25.009Z,18.6
2022-10-02T11:23:23.055Z,19.4
2022-10-02T11:28:23.386Z,19.7
2022-10-02T11:33:23.486Z,20.6
2022-10-02T11:35:49.833Z,20.6
2022-10-02T11:38:23.812Z,21.0
2022-10-02T11:43:23.887Z,21.6
2022-10-02T11:53:24.319Z,21.1
2022-10-02T11:58:24.584Z,19.8
2022-10-02T12:03:25.089Z,18.7
2022-10-02T12:08:25.090Z,20.9
2022-10-02T12:13:25.351Z,22.6
2022-10-02T12:18:25.601Z,23.4
2022-10-02T12:23:25.975Z,23.8
2022-10-02T12:33:26.658Z,19.8
2022-10-02T12:38:26.977Z,19.6
2022-10-02T12:43:27.381Z,19.9
2022-10-02T12:53:27.702Z,19.7
2022-10-02T12:58:27.933Z,22.9
2022-10-02T13:03:28.220Z,21.7
2022-10-02T13:08:30.942Z,20.8
2022-10-02T13:18:29.134Z,23.1
2022-10-02T13:23:29.369Z,24.3
2022-10-02T13:28:30.128Z,24.5
2022-10-02T13:34:25.567Z,22.8
2022-10-02T13:36:04.580Z,22.8
2022-10-02T13:38:30.632Z,21.8
2022-10-02T13:40:51.074Z,21.4
2022-10-02T13:43:31.049Z,20.6
2022-10-02T13:47:11.919Z,20.2
2022-10-02T13:48:32.942Z,20.1
2022-10-02T13:49:24.014Z,20.0
2022-10-02T13:49:38.636Z,20.0
2022-10-02T13:58:32.124Z,19.9
2022-10-02T14:03:26.599Z,20.1
2022-10-02T14:03:32.209Z,20.1
2022-10-02T14:08:32.655Z,19.9
2022-10-02T14:13:32.843Z,19.5
2022-10-02T14:18:34.515Z,19.6
2022-10-02T14:23:33.312Z,19.0
2022-10-02T14:26:00.339Z,19.0
2022-10-02T14:28:33.709Z,19.1
2022-10-02T14:33:35.072Z,19.4
2022-10-02T14:38:34.006Z,18.8
2022-10-02T14:43:34.321Z,18.6
2022-10-02T14:44:29.856Z,18.7
2022-10-02T14:48:35.777Z,18.7
2022-10-02T14:53:34.725Z,18.4
2022-10-02T14:58:34.671Z,17.8
2022-10-02T15:03:35.359Z,17.6
2022-10-02T15:08:35.308Z,17.9
2022-10-02T15:18:35.545Z,17.8
2022-10-02T15:23:35.689Z,17.8
2022-10-02T15:28:37.397Z,17.4
2022-10-02T15:33:37.100Z,17.2
2022-10-02T15:38:36.030Z,17.1
2022-10-02T15:43:36.233Z,17.0
2022-10-02T15:48:36.320Z,17.0
2022-10-02T15:58:36.580Z,16.9
2022-10-02T16:03:36.677Z,16.8
2022-10-02T16:08:36.793Z,16.8
2022-10-02T16:13:36.815Z,16.6
2022-10-02T16:18:38.893Z,16.4
2022-10-02T16:28:37.061Z,16.2
2022-10-02T16:38:37.274Z,16.2
2022-10-02T16:43:39.323Z,16.4
2022-10-02T16:43:57.643Z,16.4
2022-10-02T16:48:37.367Z,16.4
2022-10-02T16:53:37.472Z,16.3
2022-10-02T16:58:37.632Z,16.2
2022-10-02T17:01:28.165Z,16.2
2022-10-02T17:02:20.874Z,16.2
2022-10-02T17:03:37.693Z,16.1
2022-10-02T17:08:37.634Z,16.1
2022-10-02T17:13:37.556Z,16.0
2022-10-02T17:18:37.657Z,15.8
2022-10-02T17:23:37.764Z,15.7
2022-10-02T17:28:39.184Z,15.5
2022-10-02T17:33:39.892Z,15.3
2022-10-02T17:38:37.825Z,15.1
2022-10-02T17:43:48.025Z,14.9
2022-10-02T17:48:37.774Z,14.8
2022-10-02T17:53:37.997Z,14.6
2022-10-02T18:08:37.716Z,13.9
2022-10-02T18:13:37.695Z,13.8
2022-10-02T18:18:37.699Z,13.6
2022-10-02T18:23:39.635Z,13.5
2022-10-02T18:28:41.924Z,13.4
2022-10-02T18:33:37.474Z,13.3
2022-10-02T18:38:37.543Z,13.0
2022-10-02T18:43:37.412Z,12.8
2022-10-02T18:48:37.365Z,12.7
2022-10-02T18:58:37.204Z,12.6
2022-10-02T19:03:37.085Z,12.4
2022-10-02T19:08:36.933Z,12.2
2022-10-02T19:13:36.836Z,12.1
2022-10-02T19:18:36.807Z,11.9
2022-10-02T19:23:36.693Z,12.1
2022-10-02T19:28:36.512Z,11.9
2022-10-02T19:38:36.222Z,11.7
2022-10-02T19:43:35.975Z,11.6
2022-10-02T19:48:35.862Z,11.6
2022-10-02T19:53:35.711Z,11.5
2022-10-02T19:58:35.591Z,11.3
2022-10-02T20:03:35.442Z,11.1
2022-10-02T20:08:35.303Z,10.9
2022-10-02T20:13:37.455Z,11.1
2022-10-02T20:18:34.962Z,11.1
2022-10-02T20:23:34.710Z,10.9
2022-10-02T20:28:34.584Z,10.9
2022-10-02T20:33:34.315Z,10.8
2022-10-02T20:38:34.234Z,10.6
2022-10-02T20:48:55.613Z,10.5
2022-10-02T20:53:33.489Z,10.4
2022-10-02T20:58:33.302Z,10.3
2022-10-02T21:03:33.031Z,10.2
2022-10-02T21:05:53.015Z,10.1
2022-10-02T21:08:32.764Z,9.9
2022-10-02T21:18:32.293Z,9.8
2022-10-02T21:23:31.997Z,9.7
2022-10-02T21:28:33.373Z,9.6
2022-10-02T21:38:31.306Z,9.3
2022-10-02T21:43:30.943Z,9.5
2022-10-02T21:53:30.386Z,9.3
2022-10-02T21:58:30.173Z,9.4
2022-10-02T22:03:29.874Z,9.2
2022-10-02T22:08:29.548Z,9.2
2022-10-02T22:13:29.222Z,9.1
2022-10-02T22:18:28.932Z,9.0
2022-10-02T22:28:28.637Z,8.9
2022-10-02T22:33:27.991Z,8.9
2022-10-02T22:38:27.809Z,8.7
2022-10-02T22:43:27.250Z,8.7
2022-10-02T22:48:26.958Z,8.6
2022-10-02T22:58:26.021Z,8.4
2022-10-02T23:03:28.033Z,8.3
2022-10-02T23:08:25.288Z,8.1
2022-10-02T23:13:24.905Z,8.1
2022-10-02T23:18:24.487Z,8.0
2022-10-02T23:19:17.605Z,8.0
2022-10-02T23:23:24.055Z,8.0
2022-10-02T23:33:23.363Z,7.9
2022-10-02T23:38:24.900Z,7.8
2022-10-02T23:43:22.519Z,7.7
2022-10-02T23:48:22.122Z,7.8
2022-10-02T23:53:21.785Z,7.9
2022-10-02T23:58:21.278Z,7.8
